createdAt,value
2023-05-09T00:00:11.018Z,100986.16
2023-05-09T00:02:38.660Z,100991.28
2023-05-09T00:05:07.710Z,100988.81
2023-05-09T00:07:36.555Z,100984.06
2023-05-09T00:10:04.138Z,100993.56
2023-05-09T00:12:31.957Z,100985.13
2023-05-09T00:14:59.469Z,100987.22
2023-05-09T00:17:28.528Z,100976.72
2023-05-09T00:19:56.331Z,100970.97
2023-05-09T00:22:23.842Z,100968.09
2023-05-09T00:24:52.970Z,100971.19
2023-05-09T00:27:20.634Z,100969.75
2023-05-09T00:29:48.071Z,100958.59
2023-05-09T00:32:15.635Z,100966.00
2023-05-09T00:34:43.301Z,100960.44
2023-05-09T00:37:10.754Z,100954.44
2023-05-09T00:39:38.229Z,100949.47
2023-05-09T00:42:07.144Z,100959.75
2023-05-09T00:44:34.614Z,100951.09
2023-05-09T00:47:02.110Z,100950.28
2023-05-09T00:49:29.618Z,100952.56
2023-05-09T00:51:57.234Z,100952.97
2023-05-09T00:54:24.698Z,100946.94
2023-05-09T00:56:52.237Z,100950.50
2023-05-09T00:59:21.912Z,100945.72
2023-05-09T01:01:49.452Z,100940.78
2023-05-09T01:04:17.360Z,100928.41
2023-05-09T01:06:49.860Z,100933.16
2023-05-09T01:09:26.347Z,100928.84
2023-05-09T01:12:03.232Z,100932.16
2023-05-09T01:14:55.467Z,100925.97
2023-05-09T01:17:32.017Z,100926.78
2023-05-09T01:20:06.066Z,100921.22
2023-05-09T01:22:35.919Z,100920.19
2023-05-09T01:25:10.929Z,100918.94
2023-05-09T01:27:45.257Z,100919.56
2023-05-09T01:30:14.632Z,100922.66
2023-05-09T01:32:44.136Z,100914.00
2023-05-09T01:35:14.676Z,100911.13
2023-05-09T01:37:44.085Z,100908.63
2023-05-09T01:40:15.278Z,100902.88
2023-05-09T01:42:45.055Z,100901.84
2023-05-09T01:45:15.027Z,100893.41
2023-05-09T01:47:43.107Z,100893.41
2023-05-09T01:50:12.459Z,100891.75
2023-05-09T01:52:41.152Z,100888.84
2023-05-09T01:55:09.916Z,100893.56
2023-05-09T01:57:38.474Z,100887.94
2023-05-09T02:00:07.883Z,100899.59
2023-05-09T02:02:37.153Z,100889.38
2023-05-09T02:05:05.061Z,100890.31
2023-05-09T02:07:33.309Z,100895.25
2023-05-09T02:10:01.663Z,100883.28
2023-05-09T02:12:29.301Z,100885.91
2023-05-09T02:14:56.796Z,100883.69
2023-05-09T02:17:24.299Z,100890.69
2023-05-09T02:19:53.148Z,100891.34
2023-05-09T02:22:20.648Z,100897.75
2023-05-09T02:24:48.160Z,100900.25
2023-05-09T02:27:15.914Z,100886.66
2023-05-09T02:29:45.709Z,100882.50
2023-05-09T02:32:16.468Z,100880.84
2023-05-09T02:34:44.821Z,100887.00
2023-05-09T02:37:14.658Z,100872.47
2023-05-09T02:39:42.246Z,100868.38
2023-05-09T02:42:12.227Z,100865.28
2023-05-09T02:44:39.712Z,100861.06
2023-05-09T02:47:08.325Z,100870.03
2023-05-09T02:49:35.823Z,100869.56
2023-05-09T02:52:03.334Z,100866.22
2023-05-09T02:54:32.133Z,100866.63
2023-05-09T02:57:00.014Z,100858.00
2023-05-09T02:59:27.841Z,100858.06
2023-05-09T03:01:55.423Z,100859.28
2023-05-09T03:04:22.946Z,100868.13
2023-05-09T03:06:50.474Z,100862.34
2023-05-09T03:09:17.929Z,100864.66
2023-05-09T03:11:46.723Z,100858.50
2023-05-09T03:14:15.248Z,100863.84
2023-05-09T03:16:42.692Z,100858.09
2023-05-09T03:19:10.482Z,100854.78
2023-05-09T03:21:37.937Z,100851.31
2023-05-09T03:24:06.007Z,100846.59
2023-05-09T03:26:35.547Z,100848.03
2023-05-09T03:29:04.525Z,100845.75
2023-05-09T03:31:32.154Z,100839.84
2023-05-09T03:33:59.669Z,100837.97
2023-05-09T03:36:27.375Z,100834.47
2023-05-09T03:38:54.835Z,100832.09
2023-05-09T03:41:22.396Z,100826.72
2023-05-09T03:43:49.855Z,100831.00
2023-05-09T03:46:18.679Z,100837.31
2023-05-09T03:48:46.195Z,100832.16
2023-05-09T03:51:13.714Z,100823.97
2023-05-09T03:53:41.167Z,100822.69
2023-05-09T03:56:08.846Z,100827.97
2023-05-09T03:58:36.332Z,100820.13
2023-05-09T04:01:03.818Z,100832.44
2023-05-09T04:03:32.917Z,100833.06
2023-05-09T04:06:00.575Z,100827.47
2023-05-09T04:08:28.373Z,100824.72
2023-05-09T04:10:55.863Z,100833.06
2023-05-09T04:13:23.531Z,100832.03
2023-05-09T04:15:51.269Z,100830.44
2023-05-09T04:18:18.743Z,100832.13
2023-05-09T04:20:47.595Z,100814.41
2023-05-09T04:23:15.033Z,100814.22
2023-05-09T04:25:42.568Z,100823.50
2023-05-09T04:28:10.013Z,100829.25
2023-05-09T04:30:37.609Z,100826.38
2023-05-09T04:33:05.485Z,100826.81
2023-05-09T04:35:32.988Z,100834.03
2023-05-09T04:38:01.754Z,100826.84
2023-05-09T04:40:29.322Z,100826.88
2023-05-09T04:42:57.470Z,100826.88
2023-05-09T04:45:24.930Z,100818.25
2023-05-09T04:47:52.506Z,100816.63
2023-05-09T04:50:20.121Z,100812.50
2023-05-09T04:52:47.571Z,100811.25
2023-05-09T04:55:16.672Z,100805.13
2023-05-09T04:57:44.210Z,100800.75
2023-05-09T05:00:12.837Z,100799.75
2023-05-09T05:02:40.403Z,100804.31
2023-05-09T05:05:12.037Z,100797.91
2023-05-09T05:07:40.448Z,100799.75
2023-05-09T05:10:09.026Z,100792.34
2023-05-09T05:12:37.878Z,100796.25
2023-05-09T05:15:06.812Z,100776.66
2023-05-09T05:17:34.276Z,100782.41
2023-05-09T05:20:01.794Z,100784.50
2023-05-09T05:22:31.546Z,100792.53
2023-05-09T05:25:00.135Z,100787.13
2023-05-09T05:27:27.638Z,100789.81
2023-05-09T05:29:56.418Z,100786.06
2023-05-09T05:32:23.984Z,100790.19
2023-05-09T05:34:51.541Z,100792.63
2023-05-09T05:37:19.056Z,100785.69
2023-05-09T05:39:46.518Z,100788.28
2023-05-09T05:42:13.980Z,100779.59
2023-05-09T05:44:41.478Z,100777.41
2023-05-09T05:47:10.436Z,100768.78
2023-05-09T05:49:37.909Z,100766.09
2023-05-09T05:52:05.660Z,100767.94
2023-05-09T05:54:33.133Z,100769.91
2023-05-09T05:57:00.567Z,100770.34
2023-05-09T05:59:28.013Z,100761.59
2023-05-09T06:01:55.452Z,100772.97
2023-05-09T06:04:24.222Z,100768.50
2023-05-09T06:06:51.711Z,100777.69
2023-05-09T06:09:19.448Z,100765.66
2023-05-09T06:11:46.899Z,100767.31
2023-05-09T06:14:14.355Z,100762.81
2023-05-09T06:16:41.848Z,100762.53
2023-05-09T06:19:09.371Z,100758.81
2023-05-09T06:21:38.210Z,100763.00
2023-05-09T06:24:11.764Z,100748.78
2023-05-09T06:26:44.688Z,100752.66
2023-05-09T06:29:14.146Z,100746.75
2023-05-09T06:31:41.656Z,100743.56
2023-05-09T06:34:09.280Z,100746.53
2023-05-09T06:36:38.094Z,100742.22
2023-05-09T06:39:05.559Z,100741.53
2023-05-09T06:41:33.019Z,100739.44
2023-05-09T06:44:02.357Z,100728.75
2023-05-09T06:46:29.853Z,100722.84
2023-05-09T06:48:57.294Z,100722.03
2023-05-09T06:51:24.743Z,100719.69
2023-05-09T06:53:53.521Z,100724.13
2023-05-09T06:56:22.633Z,100714.78
2023-05-09T06:58:50.199Z,100716.50
2023-05-09T07:01:17.947Z,100718.63
2023-05-09T07:03:46.916Z,100716.81
2023-05-09T07:06:14.591Z,100713.41
2023-05-09T07:08:42.046Z,100715.78
2023-05-09T07:11:10.834Z,100711.25
2023-05-09T07:13:38.433Z,100705.50
2023-05-09T07:16:06.763Z,100708.34
2023-05-09T07:18:34.340Z,100697.88
2023-05-09T07:21:01.774Z,100692.19
2023-05-09T07:23:29.242Z,100689.69
2023-05-09T07:25:58.101Z,100696.13
2023-05-09T07:28:26.942Z,100689.16
2023-05-09T07:30:56.501Z,100682.13
2023-05-09T07:33:23.985Z,100695.06
2023-05-09T07:35:52.863Z,100691.25
2023-05-09T07:38:20.331Z,100684.84
2023-05-09T07:40:48.038Z,100684.28
2023-05-09T07:43:15.608Z,100676.22
2023-05-09T07:45:44.654Z,100666.25
2023-05-09T07:48:12.489Z,100667.06
2023-05-09T07:50:40.653Z,100665.88
2023-05-09T07:53:08.137Z,100663.72
2023-05-09T07:55:36.317Z,100668.25
2023-05-09T07:58:03.804Z,100664.34
2023-05-09T08:00:31.322Z,100668.00
2023-05-09T08:03:00.806Z,100664.91
2023-05-09T08:05:28.549Z,100671.91
2023-05-09T08:07:55.998Z,100660.25
2023-05-09T08:10:23.850Z,100663.69
2023-05-09T08:12:51.462Z,100649.16
2023-05-09T08:15:19.080Z,100643.63
2023-05-09T08:17:46.556Z,100643.28
2023-05-09T08:20:15.395Z,100638.69
2023-05-09T08:22:42.928Z,100628.63
2023-05-09T08:25:10.845Z,100631.75
2023-05-09T08:27:38.390Z,100630.72
2023-05-09T08:30:07.329Z,100628.84
2023-05-09T08:32:34.795Z,100626.13
2023-05-09T08:35:02.296Z,100614.13
2023-05-09T08:37:31.086Z,100618.78
2023-05-09T08:39:58.563Z,100615.75
2023-05-09T08:42:26.968Z,100608.03
2023-05-09T08:44:54.427Z,100603.69
2023-05-09T08:47:22.468Z,100605.09
2023-05-09T08:49:51.259Z,100610.72
2023-05-09T08:52:19.157Z,100604.72
2023-05-09T08:54:48.053Z,100603.22
2023-05-09T08:57:16.216Z,100602.41
2023-05-09T08:59:43.692Z,100606.41
2023-05-09T09:02:14.420Z,100605.34
2023-05-09T09:04:42.058Z,100592.66
2023-05-09T09:07:10.097Z,100588.69
2023-05-09T09:09:38.293Z,100585.16
2023-05-09T09:12:09.605Z,100589.72
2023-05-09T09:14:39.379Z,100589.63
2023-05-09T09:17:08.087Z,100589.75
2023-05-09T09:19:36.659Z,100587.38
2023-05-09T09:22:05.496Z,100581.44
2023-05-09T09:24:33.205Z,100584.38
2023-05-09T09:27:06.128Z,100576.03
2023-05-09T09:29:35.645Z,100572.53
2023-05-09T09:32:04.652Z,100568.06
2023-05-09T09:34:32.206Z,100566.97
2023-05-09T09:36:59.965Z,100568.28
2023-05-09T09:39:27.502Z,100568.28
2023-05-09T09:41:54.932Z,100560.47
2023-05-09T09:44:23.626Z,100563.81
2023-05-09T09:46:54.000Z,100553.50
2023-05-09T09:49:23.301Z,100550.66
2023-05-09T09:51:51.601Z,100538.66
2023-05-09T09:54:20.568Z,100539.84
2023-05-09T09:56:48.876Z,100533.97
2023-05-09T09:59:18.301Z,100528.47
2023-05-09T10:02:08.558Z,100522.78
2023-05-09T10:04:37.354Z,100531.34
2023-05-09T10:07:06.209Z,100529.84
2023-05-09T10:09:35.146Z,100521.44
2023-05-09T10:12:04.413Z,100512.91
2023-05-09T10:14:35.114Z,100507.03
2023-05-09T10:17:04.600Z,100504.13
2023-05-09T10:19:33.994Z,100507.81
2023-05-09T10:22:05.059Z,100493.22
2023-05-09T10:24:36.661Z,100491.81
2023-05-09T10:27:05.499Z,100485.19
2023-05-09T10:29:36.698Z,100480.53
2023-05-09T10:32:14.266Z,100486.91
2023-05-09T10:34:45.470Z,100473.56
2023-05-09T10:37:13.402Z,100467.72
2023-05-09T10:39:41.516Z,100461.91
2023-05-09T10:42:09.791Z,100465.81
2023-05-09T10:44:38.433Z,100456.31
2023-05-09T10:47:06.393Z,100458.19
2023-05-09T10:49:36.348Z,100452.88
2023-05-09T10:52:06.126Z,100444.69
2023-05-09T10:54:33.683Z,100440.09
2023-05-09T10:57:01.382Z,100431.97
2023-05-09T10:59:37.664Z,100430.41
2023-05-09T11:02:05.888Z,100436.75
2023-05-09T11:04:33.678Z,100430.66
2023-05-09T11:07:01.589Z,100419.75
2023-05-09T11:09:35.425Z,100415.59
2023-05-09T11:12:09.757Z,100406.56
2023-05-09T11:14:42.402Z,100403.31
2023-05-09T11:17:11.394Z,100405.53
2023-05-09T11:19:59.236Z,100402.81
2023-05-09T11:22:27.993Z,100396.16
2023-05-09T11:25:04.549Z,100397.66
2023-05-09T11:27:39.207Z,100392.94
2023-05-09T11:30:08.827Z,100388.50
2023-05-09T11:32:43.162Z,100394.00
2023-05-09T11:35:12.480Z,100382.31
2023-05-09T11:37:48.214Z,100387.16
2023-05-09T11:40:18.263Z,100388.31
2023-05-09T11:42:49.252Z,100380.72
2023-05-09T11:45:17.885Z,100380.22
2023-05-09T11:47:46.360Z,100376.19
2023-05-09T11:50:15.073Z,100373.56
2023-05-09T11:52:43.303Z,100368.41
2023-05-09T11:55:13.017Z,100363.53
2023-05-09T11:57:42.520Z,100359.28
2023-05-09T12:00:11.568Z,100359.47
2023-05-09T12:02:39.351Z,100363.00
2023-05-09T12:05:11.267Z,100360.22
2023-05-09T12:07:39.532Z,100355.00
2023-05-09T12:10:09.013Z,100348.88
2023-05-09T12:12:36.857Z,100348.31
2023-05-09T12:15:08.582Z,100341.53
2023-05-09T12:17:36.281Z,100330.75
2023-05-09T12:20:05.782Z,100333.03
2023-05-09T12:22:33.868Z,100332.94
2023-05-09T12:25:03.804Z,100324.28
2023-05-09T12:27:32.938Z,100321.22
2023-05-09T12:30:01.411Z,100312.69
2023-05-09T12:32:32.837Z,100303.47
2023-05-09T12:35:01.420Z,100304.25
2023-05-09T12:37:32.446Z,100295.81
2023-05-09T12:40:04.690Z,100300.09
2023-05-09T12:42:32.294Z,100294.81
2023-05-09T12:44:59.985Z,100297.31
2023-05-09T12:47:28.732Z,100286.75
2023-05-09T12:49:59.806Z,100284.59
2023-05-09T12:52:33.940Z,100276.72
2023-05-09T12:55:06.720Z,100274.22
2023-05-09T12:57:34.241Z,100271.63
2023-05-09T13:00:03.844Z,100263.66
2023-05-09T13:02:35.478Z,100249.09
2023-05-09T13:05:10.218Z,100251.56
2023-05-09T13:07:41.395Z,100241.75
2023-05-09T13:10:12.846Z,100249.41
2023-05-09T13:12:40.468Z,100243.69
2023-05-09T13:15:09.896Z,100238.78
2023-05-09T13:17:37.463Z,100237.66
2023-05-09T13:20:05.541Z,100227.50
2023-05-09T13:22:34.480Z,100229.63
2023-05-09T13:25:02.009Z,100225.97
2023-05-09T13:27:29.635Z,100220.00
2023-05-09T13:29:57.177Z,100204.63
2023-05-09T13:32:25.427Z,100197.44
2023-05-09T13:34:53.237Z,100196.03
2023-05-09T13:37:21.600Z,100192.31
2023-05-09T13:39:50.438Z,100202.91
2023-05-09T13:42:19.184Z,100193.22
2023-05-09T13:44:46.835Z,100183.00
2023-05-09T13:47:14.276Z,100188.50
2023-05-09T13:49:41.731Z,100175.50
2023-05-09T13:52:09.221Z,100183.41
2023-05-09T13:54:37.029Z,100172.41
2023-05-09T13:57:06.255Z,100164.69
2023-05-09T13:59:33.702Z,100165.88
2023-05-09T14:02:01.776Z,100160.78
2023-05-09T14:04:30.042Z,100156.50
2023-05-09T14:06:57.595Z,100152.72
2023-05-09T14:09:26.180Z,100155.78
2023-05-09T14:11:55.425Z,100147.22
2023-05-09T14:14:25.406Z,100135.56
2023-05-09T14:16:53.902Z,100133.56
2023-05-09T14:19:21.430Z,100132.50
2023-05-09T14:21:48.957Z,100130.19
2023-05-09T14:24:16.688Z,100124.28
2023-05-09T14:26:44.995Z,100120.88
2023-05-09T14:29:12.481Z,100117.69
2023-05-09T14:31:41.398Z,100112.66
2023-05-09T14:34:09.280Z,100112.06
2023-05-09T14:36:37.405Z,100110.78
2023-05-09T14:39:05.361Z,100104.34
2023-05-09T14:41:32.840Z,100093.66
2023-05-09T14:44:00.314Z,100100.31
2023-05-09T14:46:27.917Z,100093.41
2023-05-09T14:49:02.125Z,100099.84
2023-05-09T14:51:29.585Z,100097.88
2023-05-09T14:53:57.048Z,100075.53
2023-05-09T14:56:24.532Z,100078.06
2023-05-09T14:58:51.986Z,100078.25
2023-05-09T15:01:19.665Z,100067.63
2023-05-09T15:03:48.040Z,100071.59
2023-05-09T15:06:16.909Z,100066.53
2023-05-09T15:08:44.384Z,100068.09
2023-05-09T15:11:11.875Z,100064.34
2023-05-09T15:13:39.376Z,100063.63
2023-05-09T15:16:07.030Z,100066.19
2023-05-09T15:18:34.631Z,100070.47
2023-05-09T15:21:02.156Z,100069.41
2023-05-09T15:23:31.024Z,100071.09
2023-05-09T15:25:58.616Z,100066.28
2023-05-09T15:28:26.392Z,100062.44
2023-05-09T15:30:54.123Z,100058.69
2023-05-09T15:33:21.686Z,100057.38
2023-05-09T15:35:50.085Z,100064.16
2023-05-09T15:38:18.027Z,100067.34
2023-05-09T15:40:46.817Z,100069.81
2023-05-09T15:43:14.276Z,100066.75
2023-05-09T15:45:45.441Z,100052.31
2023-05-09T15:48:13.327Z,100043.16
2023-05-09T15:50:41.065Z,100031.50
2023-05-09T15:53:08.522Z,100027.00
2023-05-09T15:55:36.317Z,100024.59
2023-05-09T15:58:05.106Z,100014.97
2023-05-09T16:00:32.854Z,100016.25
2023-05-09T16:03:00.408Z,100016.25
2023-05-09T16:05:28.000Z,100010.81
2023-05-09T16:07:55.524Z,100012.94
2023-05-09T16:10:22.982Z,100008.78
2023-05-09T16:12:50.501Z,100010.16
2023-05-09T16:15:19.548Z,100006.56
2023-05-09T16:17:47.036Z,100003.56
2023-05-09T16:20:15.098Z,99993.72
2023-05-09T16:22:42.942Z,99996.88
2023-05-09T16:25:11.151Z,99995.63
2023-05-09T16:27:38.644Z,99985.84
2023-05-09T16:30:07.651Z,99984.69
2023-05-09T16:32:36.817Z,99979.16
2023-05-09T16:35:04.564Z,99969.03
2023-05-09T16:37:33.513Z,99974.22
2023-05-09T16:40:04.277Z,99967.84
2023-05-09T16:42:31.807Z,99962.22
2023-05-09T16:44:59.253Z,99957.44
2023-05-09T16:47:26.781Z,99956.19
2023-05-09T16:49:55.649Z,99967.81
2023-05-09T16:52:23.849Z,99953.88
2023-05-09T16:54:52.228Z,99953.78
2023-05-09T16:57:19.673Z,99956.88
2023-05-09T16:59:47.299Z,99951.59
2023-05-09T17:02:14.760Z,99950.06
2023-05-09T17:04:42.297Z,99953.56
2023-05-09T17:07:12.606Z,99954.75
2023-05-09T17:09:40.203Z,99960.28
2023-05-09T17:12:08.068Z,99963.59
2023-05-09T17:14:35.621Z,99964.81
2023-05-09T17:17:03.157Z,99961.66
2023-05-09T17:19:32.586Z,99964.44
2023-05-09T17:22:04.138Z,99956.72
2023-05-09T17:24:33.108Z,99948.19
2023-05-09T17:27:01.205Z,99947.31
2023-05-09T17:29:29.100Z,99946.47
2023-05-09T17:31:57.441Z,99948.72
2023-05-09T17:34:25.272Z,99945.53
2023-05-09T17:36:52.762Z,99951.28
2023-05-09T17:39:20.465Z,99951.59
2023-05-09T17:41:49.317Z,99932.53
2023-05-09T17:44:16.884Z,99943.53
2023-05-09T17:46:44.412Z,99924.81
2023-05-09T17:49:13.839Z,99921.75
2023-05-09T17:51:41.389Z,99918.50
2023-05-09T17:54:09.049Z,99906.09
2023-05-09T17:56:36.527Z,99913.59
2023-05-09T17:59:05.436Z,99922.56
2023-05-09T18:01:33.000Z,99905.41
2023-05-09T18:04:00.650Z,99914.66
2023-05-09T18:06:28.898Z,99922.69
2023-05-09T18:08:56.487Z,99948.13
2023-05-09T18:11:24.525Z,99971.63
2023-05-09T18:13:51.993Z,99989.97
2023-05-09T18:16:20.864Z,99992.66
2023-05-09T18:18:48.407Z,99991.50
2023-05-09T18:21:15.895Z,99994.78
2023-05-09T18:23:43.337Z,99973.59
2023-05-09T18:26:10.815Z,99959.91
2023-05-09T18:28:40.076Z,99950.69
2023-05-09T18:31:10.021Z,99964.19
2023-05-09T18:33:39.068Z,99979.97
2023-05-09T18:36:08.791Z,99990.28
2023-05-09T18:38:38.254Z,99986.84
2023-05-09T18:41:07.039Z,99992.69
2023-05-09T18:43:35.032Z,99994.91
2023-05-09T18:46:03.160Z,99991.41
2023-05-09T18:52:00.242Z,99981.63
2023-05-09T18:54:27.678Z,99981.72
2023-05-09T18:56:55.102Z,99981.03
2023-05-09T18:59:23.447Z,99979.88
2023-05-09T19:01:51.039Z,99967.94
2023-05-09T19:04:19.450Z,99967.00
2023-05-09T19:06:47.179Z,99979.13
2023-05-09T19:09:16.542Z,99970.28
2023-05-09T19:11:44.027Z,99969.47
2023-05-09T19:14:11.491Z,99977.97
2023-05-09T19:16:39.004Z,99960.84
2023-05-09T19:19:06.489Z,99963.41
2023-05-09T19:21:35.426Z,99962.13
2023-05-09T19:24:04.617Z,99972.59
2023-05-09T19:26:33.493Z,99968.19
2023-05-09T19:29:04.074Z,99975.44
2023-05-09T19:31:31.707Z,99987.69
2023-05-09T19:33:59.645Z,99994.84
2023-05-09T19:36:27.198Z,99996.38
2023-05-09T19:38:54.623Z,100004.09
2023-05-09T19:41:22.417Z,100004.84
2023-05-09T19:43:51.576Z,100004.00
2023-05-09T19:46:19.241Z,100003.06
2023-05-09T19:48:46.775Z,99999.38
2023-05-09T19:51:15.370Z,99993.16
2023-05-09T19:53:42.922Z,99991.88
2023-05-09T19:56:10.435Z,100001.44
2023-05-09T19:58:37.904Z,99994.78
2023-05-09T20:01:07.249Z,99992.50
2023-05-09T20:03:35.066Z,99992.09
2023-05-09T20:06:02.634Z,99986.25
2023-05-09T20:08:30.765Z,99981.72
2023-05-09T20:10:59.902Z,99977.69
2023-05-09T20:13:27.795Z,99966.31
2023-05-09T20:15:55.385Z,99967.72
2023-05-09T20:18:24.225Z,99963.75
2023-05-09T20:20:51.813Z,99973.31
2023-05-09T20:23:19.332Z,99976.44
2023-05-09T20:25:46.797Z,99969.22
2023-05-09T20:28:19.512Z,99976.34
2023-05-09T20:30:47.012Z,99964.00
2023-05-09T20:33:14.467Z,99962.00
2023-05-09T20:35:43.801Z,99960.09
2023-05-09T20:38:11.295Z,99961.72
2023-05-09T20:40:39.193Z,99952.19
2023-05-09T20:43:06.648Z,99961.16
2023-05-09T20:45:34.240Z,99957.66
2023-05-09T20:48:03.912Z,99964.41
2023-05-09T20:50:31.443Z,99956.97
2023-05-09T20:53:00.259Z,99959.53
2023-05-09T20:55:27.780Z,99963.91
2023-05-09T20:57:55.326Z,99959.25
2023-05-09T21:00:22.776Z,99962.97
2023-05-09T21:02:51.446Z,99955.53
2023-05-09T21:05:18.971Z,99957.28
2023-05-09T21:07:46.444Z,99951.31
2023-05-09T21:10:15.780Z,99952.47
2023-05-09T21:12:43.555Z,99946.09
2023-05-09T21:15:11.776Z,99947.75
2023-05-09T21:17:39.261Z,99946.34
2023-05-09T21:20:08.432Z,99942.84
2023-05-09T21:22:35.981Z,99940.03
2023-05-09T21:25:03.455Z,99936.78
2023-05-09T21:27:32.326Z,99945.06
2023-05-09T21:29:59.902Z,99939.72
2023-05-09T21:32:28.439Z,99928.75
2023-05-09T21:34:55.918Z,99937.50
2023-05-09T21:37:23.463Z,99934.34
2023-05-09T21:39:50.959Z,99931.41
2023-05-09T21:42:18.413Z,99935.50
2023-05-09T21:44:47.201Z,99933.50
2023-05-09T21:47:14.749Z,99929.53
2023-05-09T21:49:42.257Z,99926.53
2023-05-09T21:52:09.935Z,99926.41
2023-05-09T21:54:37.430Z,99918.72
2023-05-09T21:57:04.936Z,99926.28
2023-05-09T21:59:32.829Z,99924.84
2023-05-09T22:02:01.677Z,99925.69
2023-05-09T22:04:29.215Z,99924.50
2023-05-09T22:06:56.705Z,99914.59
2023-05-09T22:09:24.359Z,99914.59
2023-05-09T22:11:52.926Z,99919.22
2023-05-09T22:14:20.375Z,99918.41
2023-05-09T22:16:47.891Z,99918.63
2023-05-09T22:19:17.367Z,99919.22
2023-05-09T22:21:45.136Z,99916.75
2023-05-09T22:24:13.007Z,99915.03
2023-05-09T22:26:40.493Z,99908.50
2023-05-09T22:29:07.961Z,99913.00
2023-05-09T22:31:35.837Z,99911.97
2023-05-09T22:34:03.537Z,99914.06
2023-05-09T22:36:33.225Z,99910.59
2023-05-09T22:39:00.780Z,99907.19
2023-05-09T22:41:28.414Z,99905.56
2023-05-09T22:43:55.870Z,99914.06
2023-05-09T22:46:23.444Z,99911.28
2023-05-09T22:48:50.962Z,99900.31
2023-05-09T22:51:18.431Z,99910.97
2023-05-09T22:53:47.213Z,99901.97
2023-05-09T22:56:14.697Z,99902.91
2023-05-09T22:58:42.136Z,99900.47
2023-05-09T23:01:09.616Z,99896.47
2023-05-09T23:03:37.185Z,99887.28
2023-05-09T23:06:04.993Z,99888.91
2023-05-09T23:08:32.455Z,99885.91
2023-05-09T23:11:01.241Z,99890.53
2023-05-09T23:13:28.797Z,99888.91
2023-05-09T23:15:56.372Z,99884.00
2023-05-09T23:18:23.904Z,99894.50
2023-05-09T23:20:51.591Z,99893.50
2023-05-09T23:23:19.066Z,99903.47
2023-05-09T23:25:46.520Z,99895.41
2023-05-09T23:28:15.460Z,99902.63
2023-05-09T23:30:42.939Z,99903.19
2023-05-09T23:33:10.467Z,99904.41
2023-05-09T23:35:37.916Z,99912.66
2023-05-09T23:38:05.405Z,99915.16
2023-05-09T23:40:32.857Z,99929.00
2023-05-09T23:43:00.302Z,99926.03
2023-05-09T23:45:29.111Z,99923.72
2023-05-09T23:47:57.030Z,99934.81
2023-05-09T23:50:24.530Z,99929.22
2023-05-09T23:52:51.997Z,99928.09
2023-05-09T23:55:19.504Z,99930.47
2023-05-09T23:57:47.023Z,99931.53
